Pagina principale
METAR-TAF:

METAR-TAF

Aeroporti :

Chulitna, Alaska, Stati Uniti

latitudine: 62-53N, longitudine: 149-50W, altezza: 381 m

Osservazione

Il bollettino è stato emesso 2 ore e 13 minuti fa, alle 21:52 UTC
Vento calmo
Temperature -2°C
Umidità 86%
Pressione 992 hPa
Visibilità: 32.2 km
Nubi sparse ad un'altezza di 5000 ft

METAR: PAEC 202152Z 00000KT 20SM SCT050 M02/M04 A2930 RMK NOSPECI

Ora: 15:05 (00:05 UTC)


TAF: mancante

Osservazioni e previsioni meteorologiche di più di 4000 aeroporti (messaggi METAR e TAF).

Le stazioni disponibili sono rappresentate dai dischi gialli e rossi sulla carta.

Puntare il mouse per vedere il nome della stazione.

Clicca sopra per visualizzare le osservazioni e previsioni meteorologiche.

Per cambiare la mappa : fare clic sui pulsanti verdi con una croce nera per ingrandire, il pulsante verde con un trattino per diminuire, o sulla freccia verde per le mappe adiacenti.


METAR-TAF: